Time;durP1;ratioP1;P1;durP2;ratioP2;P2;SDS_P1;SDS_P2;PMS_P1;PMS_P2;Temp;Humidity;BMP_temperature;BMP_pressure;BME280_temperature;BME280_humidity;BME280_pressure;Samples;Min_cycle;Max_cycle;Signal;HPM_P1;HPM_P2
2024/01/06 00:00:04;;;;;;;16.20;10.20;;;-1.40;99.90;;;;;;6110662;23;20145;-85
2024/01/06 00:02:34;;;;;;;16.57;10.67;;;-1.50;99.90;;;;;;6110274;23;20165;-86
2024/01/06 00:05:05;;;;;;;21.03;12.07;;;-1.40;99.90;;;;;;6107705;23;20175;-87
2024/01/06 00:07:37;;;;;;;22.30;13.13;;;-1.30;99.90;;;;;;6091703;23;20157;-83
2024/01/06 00:10:06;;;;;;;23.37;12.50;;;-1.50;99.90;;;;;;6082826;23;20184;-85
2024/01/06 00:12:35;;;;;;;22.10;11.63;;;-1.40;99.90;;;;;;6092032;23;20157;-84
2024/01/06 00:15:05;;;;;;;22.63;13.33;;;-1.40;99.90;;;;;;6081121;23;20188;-84
2024/01/06 00:17:35;;;;;;;25.83;13.60;;;-1.40;99.90;;;;;;6093609;23;20196;-86
2024/01/06 00:20:04;;;;;;;22.63;14.70;;;-1.40;99.90;;;;;;6096075;23;20168;-84
2024/01/06 00:22:33;;;;;;;24.20;14.20;;;-1.40;99.90;;;;;;6090228;23;20243;-86
2024/01/06 00:25:04;;;;;;;22.87;13.93;;;-1.40;99.90;;;;;;6091953;23;20157;-84
2024/01/06 00:27:33;;;;;;;22.80;14.77;;;-1.40;99.90;;;;;;6093548;23;20507;-84
2024/01/06 00:30:02;;;;;;;21.70;10.60;;;-1.40;99.90;;;;;;6094782;23;20212;-84
2024/01/06 00:32:31;;;;;;;16.37;9.80;;;-1.40;99.90;;;;;;6094095;23;20571;-82
2024/01/06 00:35:15;;;;;;;24.17;15.30;;;-1.40;99.90;;;;;;6120628;23;20160;-84
2024/01/06 00:37:46;;;;;;;25.63;14.57;;;-1.40;99.90;;;;;;6118211;23;20172;-84
2024/01/06 00:40:18;;;;;;;21.57;13.37;;;-1.50;99.90;;;;;;6123895;23;20160;-85
2024/01/06 00:42:47;;;;;;;25.27;15.57;;;-1.50;99.90;;;;;;6119536;23;20222;-84
2024/01/06 00:45:16;;;;;;;28.63;15.27;;;-1.50;99.90;;;;;;6111263;23;20168;-85
2024/01/06 00:47:45;;;;;;;26.63;15.33;;;-1.50;99.90;;;;;;6120975;23;20255;-86
2024/01/06 00:50:15;;;;;;;24.47;14.80;;;-1.50;99.90;;;;;;6108986;23;20184;-85
2024/01/06 00:52:44;;;;;;;22.67;12.63;;;-1.40;99.90;;;;;;6121169;23;20260;-83
2024/01/06 00:55:14;;;;;;;22.83;13.90;;;-1.50;99.90;;;;;;6120043;23;20157;-86
2024/01/06 00:57:45;;;;;;;22.73;12.53;;;-1.30;99.90;;;;;;6120709;23;20165;-85
2024/01/06 01:00:15;;;;;;;13.47;9.33;;;-1.40;99.90;;;;;;6108549;23;20268;-85
2024/01/06 01:02:46;;;;;;;14.40;9.23;;;-1.50;99.90;;;;;;6119750;23;20198;-86
2024/01/06 01:05:14;;;;;;;20.03;10.93;;;-1.50;99.90;;;;;;6126420;23;20203;-84
2024/01/06 01:07:44;;;;;;;19.50;11.17;;;-1.50;99.90;;;;;;6123169;23;20652;-85
2024/01/06 01:10:12;;;;;;;19.40;10.60;;;-1.40;99.90;;;;;;6123610;23;20179;-84
2024/01/06 01:12:42;;;;;;;24.03;13.20;;;-1.60;99.90;;;;;;6121842;23;20562;-84
2024/01/06 01:15:13;;;;;;;23.77;13.40;;;-1.60;99.90;;;;;;6125363;23;20157;-84
2024/01/06 01:17:47;;;;;;;16.10;9.47;;;-1.60;99.90;;;;;;6122606;23;20184;-83
2024/01/06 01:20:16;;;;;;;12.77;7.53;;;-1.60;99.90;;;;;;6127014;23;20164;-85
2024/01/06 01:22:46;;;;;;;22.07;12.93;;;-1.60;99.90;;;;;;6133176;23;20173;-85
2024/01/06 01:25:17;;;;;;;20.30;12.03;;;-1.60;99.90;;;;;;6147186;23;20168;-85
2024/01/06 01:27:45;;;;;;;16.03;8.43;;;-1.60;99.90;;;;;;6142669;23;20195;-86
2024/01/06 01:30:16;;;;;;;20.67;12.73;;;-1.60;99.90;;;;;;6126466;23;20248;-84
2024/01/06 01:32:46;;;;;;;21.63;12.77;;;-1.60;99.90;;;;;;6139100;23;20157;-85
2024/01/06 01:35:15;;;;;;;21.87;12.83;;;-1.60;99.90;;;;;;6172804;23;20190;-85
2024/01/06 01:37:44;;;;;;;21.17;12.67;;;-1.60;99.90;;;;;;6171775;23;20164;-84
2024/01/06 01:40:13;;;;;;;18.70;9.33;;;-1.60;99.90;;;;;;6169341;23;20156;-87
2024/01/06 01:42:44;;;;;;;21.77;13.50;;;-1.60;99.90;;;;;;6153155;23;20179;-86
2024/01/06 01:45:18;;;;;;;20.07;11.90;;;-1.60;99.90;;;;;;6175113;23;20510;-83
2024/01/06 01:47:47;;;;;;;18.33;11.40;;;-1.60;99.90;;;;;;6176065;23;20199;-87
2024/01/06 01:50:16;;;;;;;15.63;9.40;;;-1.50;99.90;;;;;;6169373;23;20163;-86
2024/01/06 01:52:45;;;;;;;20.17;12.13;;;-1.30;99.90;;;;;;6162129;23;20175;-85
2024/01/06 01:55:13;;;;;;;20.93;11.70;;;-1.60;99.90;;;;;;6119438;23;20705;-84
2024/01/06 01:57:43;;;;;;;20.53;12.03;;;-1.60;99.90;;;;;;6152011;23;20227;-86
2024/01/06 02:00:13;;;;;;;16.40;10.47;;;-1.70;99.90;;;;;;6156357;23;20176;-85
2024/01/06 02:02:46;;;;;;;18.93;11.43;;;-1.60;99.90;;;;;;6100925;23;20279;-86
2024/01/06 02:05:16;;;;;;;14.70;7.93;;;-1.50;99.90;;;;;;6122760;23;21202;-87
2024/01/06 02:07:47;;;;;;;16.63;9.47;;;-1.50;99.90;;;;;;6119185;23;20224;-84
2024/01/06 02:10:29;;;;;;;15.47;9.70;;;-1.50;99.90;;;;;;6125392;23;20161;-87
2024/01/06 02:13:35;;;;;;;13.97;8.70;;;-1.40;99.90;;;;;;6124243;23;20186;-86
2024/01/06 02:16:05;;;;;;;16.00;9.47;;;-1.60;99.90;;;;;;6109631;23;20191;-87
2024/01/06 02:18:35;;;;;;;16.57;9.20;;;-1.60;99.90;;;;;;6123915;23;20353;-86
2024/01/06 02:21:07;;;;;;;12.30;7.57;;;-1.60;99.90;;;;;;6142581;23;20207;-84
2024/01/06 02:23:38;;;;;;;16.00;9.40;;;-1.50;99.90;;;;;;6145738;23;20483;-83
2024/01/06 02:26:07;;;;;;;16.17;10.50;;;-1.60;99.90;;;;;;6143210;23;20224;-83
2024/01/06 02:28:36;;;;;;;19.17;11.40;;;-1.50;99.90;;;;;;6147418;23;20235;-84
2024/01/06 02:31:05;;;;;;;14.33;8.97;;;-1.50;99.90;;;;;;6145238;23;20307;-84
2024/01/06 02:36:32;;;;;;;15.63;8.03;;;-1.50;99.90;;;;;;6117923;23;20214;-85
2024/01/06 02:39:02;;;;;;;10.40;5.97;;;-1.50;99.90;;;;;;6116898;23;21025;-87
2024/01/06 02:41:32;;;;;;;12.27;7.30;;;-1.40;99.90;;;;;;6123927;23;20229;-85
2024/01/06 02:44:02;;;;;;;14.13;9.03;;;-1.30;99.90;;;;;;6122312;23;20528;-85
2024/01/06 02:46:31;;;;;;;15.10;8.33;;;-1.50;99.90;;;;;;6129870;23;20191;-85
2024/01/06 02:49:00;;;;;;;10.97;6.20;;;-1.50;99.90;;;;;;6115608;23;20172;-84
2024/01/06 02:51:29;;;;;;;18.53;10.20;;;-1.50;99.90;;;;;;6118558;23;20175;-84
2024/01/06 02:53:57;;;;;;;11.63;7.53;;;-1.20;99.90;;;;;;6120899;23;20282;-86
2024/01/06 02:56:28;;;;;;;16.77;10.27;;;-1.50;99.90;;;;;;6115895;23;20164;-84
2024/01/06 02:58:57;;;;;;;16.77;8.83;;;-1.50;99.90;;;;;;6116385;23;20176;-85
2024/01/06 03:01:26;;;;;;;15.87;11.30;;;-1.40;99.90;;;;;;6143553;23;20156;-85
2024/01/06 03:03:55;;;;;;;12.27;7.43;;;-1.50;99.90;;;;;;6162626;23;20226;-87
2024/01/06 03:06:28;;;;;;;10.77;6.53;;;-1.30;99.90;;;;;;6170222;23;20308;-85
2024/01/06 03:08:57;;;;;;;9.97;7.17;;;-1.40;99.90;;;;;;6172025;23;20219;-87
2024/01/06 03:11:28;;;;;;;10.07;5.57;;;-1.30;99.90;;;;;;6173189;23;20215;-85
2024/01/06 03:13:57;;;;;;;9.27;5.73;;;-1.50;99.90;;;;;;6167363;23;20164;-86
2024/01/06 03:16:26;;;;;;;9.13;5.63;;;-1.40;99.90;;;;;;6165031;23;20180;-84
2024/01/06 03:18:58;;;;;;;9.20;6.27;;;-1.40;99.90;;;;;;6164455;23;20195;-83
2024/01/06 03:21:28;;;;;;;9.07;6.30;;;-1.40;99.90;;;;;;6170563;23;20168;-86
2024/01/06 03:23:57;;;;;;;10.07;6.47;;;-1.40;99.90;;;;;;6170426;23;20176;-87
2024/01/06 03:26:28;;;;;;;8.97;5.80;;;-1.40;99.90;;;;;;6162072;23;20172;-86
2024/01/06 03:28:58;;;;;;;7.07;4.87;;;-1.30;99.90;;;;;;6168427;23;20199;-84
2024/01/06 03:31:27;;;;;;;9.77;6.27;;;-1.20;99.90;;;;;;6174754;23;20173;-88
2024/01/06 03:33:56;;;;;;;12.57;8.10;;;-1.20;99.90;;;;;;6174244;23;20185;-84
2024/01/06 03:36:26;;;;;;;7.93;5.53;;;-1.30;99.90;;;;;;6176732;23;20178;-89
2024/01/06 03:38:54;;;;;;;11.97;7.60;;;-1.30;99.90;;;;;;6172270;23;20269;-86
2024/01/06 03:41:29;;;;;;;9.43;5.47;;;-1.30;99.90;;;;;;6167973;23;20179;-86
2024/01/06 03:43:58;;;;;;;10.47;6.27;;;-1.30;99.90;;;;;;6152529;23;20226;-87
2024/01/06 03:46:27;;;;;;;8.43;6.23;;;-1.40;99.90;;;;;;6128151;23;20206;-83
2024/01/06 03:48:55;;;;;;;8.50;6.33;;;-1.40;99.90;;;;;;6173014;23;20179;-85
2024/01/06 03:51:24;;;;;;;9.90;7.07;;;-1.40;99.90;;;;;;6171560;23;20176;-87
2024/01/06 03:53:53;;;;;;;16.77;8.13;;;-1.40;99.90;;;;;;6169964;23;20171;-87
2024/01/06 03:56:22;;;;;;;9.93;6.47;;;-1.40;99.90;;;;;;6170025;23;20197;-89
2024/01/06 03:58:52;;;;;;;10.67;5.73;;;-1.30;99.90;;;;;;6170247;23;20174;-85
2024/01/06 04:01:22;;;;;;;15.37;7.87;;;-1.40;99.90;;;;;;6158178;23;20603;-85
2024/01/06 04:03:50;;;;;;;14.67;9.40;;;-1.40;99.90;;;;;;6147355;23;20520;-87
2024/01/06 04:06:20;;;;;;;14.90;9.37;;;-1.20;99.90;;;;;;6148039;23;20462;-83
2024/01/06 04:08:48;;;;;;;12.17;5.17;;;-1.40;99.90;;;;;;6146215;23;20278;-87
2024/01/06 04:11:17;;;;;;;16.27;9.97;;;-1.40;99.90;;;;;;6148093;23;20185;-85
2024/01/06 04:13:46;;;;;;;9.47;7.10;;;-1.40;99.90;;;;;;6149995;23;20174;-85
2024/01/06 04:16:16;;;;;;;12.30;7.57;;;-1.40;99.90;;;;;;6148967;23;20178;-85
2024/01/06 04:18:47;;;;;;;16.30;9.77;;;-1.40;99.90;;;;;;6150371;23;20187;-85
2024/01/06 04:21:16;;;;;;;8.60;6.20;;;-1.40;99.90;;;;;;6156794;23;20167;-86
2024/01/06 04:23:44;;;;;;;14.47;6.80;;;-1.40;99.90;;;;;;6173891;23;20219;-86
2024/01/06 04:26:13;;;;;;;17.10;10.63;;;-1.40;99.90;;;;;;6173458;23;20176;-85
2024/01/06 04:28:41;;;;;;;18.53;10.43;;;-1.50;99.90;;;;;;6173606;23;20190;-83
2024/01/06 04:31:10;;;;;;;11.57;7.77;;;-1.50;99.90;;;;;;6173715;23;20198;-83
2024/01/06 04:33:41;;;;;;;16.90;9.67;;;-1.50;99.90;;;;;;6174638;23;20163;-83
2024/01/06 04:36:10;;;;;;;14.33;8.10;;;-1.50;99.90;;;;;;6174186;23;20246;-85
2024/01/06 04:38:39;;;;;;;21.53;10.90;;;-1.40;99.90;;;;;;6175929;23;20156;-85
2024/01/06 04:41:08;;;;;;;11.47;7.30;;;-1.50;99.90;;;;;;6175250;23;20154;-85
2024/01/06 04:43:36;;;;;;;16.23;10.43;;;-1.50;99.90;;;;;;6176102;23;20563;-86
2024/01/06 04:46:05;;;;;;;15.83;9.73;;;-1.60;99.90;;;;;;6174479;23;20178;-83
2024/01/06 04:48:34;;;;;;;19.27;12.37;;;-1.50;99.90;;;;;;6177940;23;20195;-86
2024/01/06 04:51:04;;;;;;;17.97;10.57;;;-1.60;99.90;;;;;;6175729;23;20164;-85
2024/01/06 04:53:33;;;;;;;15.67;9.73;;;-1.60;99.90;;;;;;6176918;23;20198;-83
2024/01/06 04:56:03;;;;;;;21.93;12.73;;;-1.30;99.90;;;;;;6172349;23;20160;-86
2024/01/06 04:58:31;;;;;;;22.73;12.83;;;-1.60;99.90;;;;;;6170416;23;20179;-86
2024/01/06 05:01:00;;;;;;;19.47;11.80;;;-1.60;99.90;;;;;;6172015;23;20171;-86
2024/01/06 05:03:29;;;;;;;24.47;13.60;;;-1.50;99.90;;;;;;6175937;23;20214;-84
2024/01/06 05:05:58;;;;;;;19.23;12.77;;;-1.50;99.90;;;;;;6175231;23;20167;-86
2024/01/06 05:08:30;;;;;;;22.67;12.47;;;-1.60;99.90;;;;;;6167716;23;20195;-85
2024/01/06 05:11:00;;;;;;;19.57;11.47;;;-1.70;99.90;;;;;;6174648;23;20166;-84
2024/01/06 05:13:28;;;;;;;18.40;9.63;;;-1.50;99.90;;;;;;6176179;23;20183;-86
2024/01/06 05:15:57;;;;;;;13.53;6.63;;;-1.50;99.90;;;;;;6177227;23;20321;-84
2024/01/06 05:18:26;;;;;;;16.97;10.90;;;-1.50;99.90;;;;;;6140974;23;20179;-85
2024/01/06 05:20:55;;;;;;;13.67;8.47;;;-1.50;99.90;;;;;;6176575;23;20190;-86
2024/01/06 05:23:24;;;;;;;13.00;6.97;;;-1.50;99.90;;;;;;6173911;23;20190;-84
2024/01/06 05:25:54;;;;;;;14.40;8.90;;;-1.60;99.90;;;;;;6177031;23;20175;-83
2024/01/06 05:28:23;;;;;;;18.37;10.23;;;-1.50;99.90;;;;;;6174393;23;20179;-84
2024/01/06 05:30:51;;;;;;;19.53;11.73;;;-1.50;99.90;;;;;;6177332;23;20159;-83
2024/01/06 05:33:20;;;;;;;17.53;10.03;;;-1.50;99.90;;;;;;6177253;23;20172;-82
2024/01/06 05:35:50;;;;;;;17.80;10.03;;;-1.30;99.90;;;;;;6140489;23;20167;-85
2024/01/06 05:38:18;;;;;;;15.93;10.17;;;-1.50;99.90;;;;;;6166163;23;20198;-85
2024/01/06 05:40:47;;;;;;;8.40;5.20;;;-1.50;99.90;;;;;;6176126;23;20412;-85
2024/01/06 05:43:17;;;;;;;16.53;10.47;;;-1.50;99.90;;;;;;6174774;23;20230;-83
2024/01/06 05:45:46;;;;;;;13.40;7.97;;;-1.40;99.90;;;;;;6176753;23;20202;-85
2024/01/06 05:48:15;;;;;;;20.13;11.53;;;-1.50;99.90;;;;;;6175218;23;20168;-82
2024/01/06 05:50:44;;;;;;;19.20;11.00;;;-1.30;99.90;;;;;;6178031;23;20229;-87
2024/01/06 05:53:14;;;;;;;17.23;10.23;;;-1.30;99.90;;;;;;6175400;23;20170;-84
2024/01/06 05:55:43;;;;;;;19.03;8.50;;;-1.30;99.90;;;;;;6176822;23;20342;-84
2024/01/06 05:58:11;;;;;;;12.60;7.90;;;-1.50;99.90;;;;;;6174887;23;20175;-85
2024/01/06 06:00:42;;;;;;;16.90;10.50;;;-1.50;99.90;;;;;;6176168;23;20159;-85
2024/01/06 06:03:11;;;;;;;15.47;10.43;;;-1.50;99.90;;;;;;6177115;23;20216;-83
2024/01/06 06:05:40;;;;;;;10.83;6.47;;;-1.50;99.90;;;;;;6176360;23;20171;-87
2024/01/06 06:08:08;;;;;;;13.10;8.50;;;-1.50;99.90;;;;;;6176744;23;20234;-85
2024/01/06 06:10:51;;;;;;;5.57;4.53;;;-1.50;99.90;;;;;;6176549;23;20377;-86
2024/01/06 06:13:20;;;;;;;14.83;9.20;;;-1.20;99.90;;;;;;6138365;23;20172;-85
2024/01/06 06:15:53;;;;;;;16.57;9.87;;;-1.50;99.90;;;;;;6176573;23;20182;-85
2024/01/06 06:18:22;;;;;;;14.50;9.33;;;-1.50;99.90;;;;;;6173538;23;20164;-84
2024/01/06 06:20:51;;;;;;;18.40;11.10;;;-1.40;99.90;;;;;;6177184;23;20220;-84
2024/01/06 06:23:20;;;;;;;18.03;10.57;;;-1.50;99.90;;;;;;6174221;23;20172;-84
2024/01/06 06:25:49;;;;;;;17.50;10.00;;;-1.30;99.90;;;;;;6174926;23;20234;-85
2024/01/06 06:28:17;;;;;;;18.63;10.97;;;-1.30;99.90;;;;;;6176338;23;20163;-85
2024/01/06 06:30:46;;;;;;;16.67;10.97;;;-1.50;99.90;;;;;;6175989;23;20203;-84
2024/01/06 06:33:17;;;;;;;17.23;11.53;;;-1.40;99.90;;;;;;6175315;23;20187;-84
2024/01/06 06:35:46;;;;;;;19.27;11.33;;;-1.40;99.90;;;;;;6171143;23;20164;-82
2024/01/06 06:38:15;;;;;;;19.60;12.20;;;-1.50;99.90;;;;;;6126962;23;20180;-83
2024/01/06 06:40:43;;;;;;;19.07;11.10;;;-1.50;99.90;;;;;;6161968;23;20179;-83
2024/01/06 06:43:12;;;;;;;17.70;10.87;;;-1.40;99.90;;;;;;6159921;23;20187;-84
2024/01/06 06:45:44;;;;;;;19.80;12.07;;;-1.40;99.90;;;;;;6164763;23;20156;-84
2024/01/06 06:48:13;;;;;;;19.23;11.90;;;-1.50;99.90;;;;;;6169284;23;20171;-81
2024/01/06 06:50:43;;;;;;;19.60;12.20;;;-1.50;99.90;;;;;;6173641;23;20228;-87
2024/01/06 06:53:12;;;;;;;20.13;10.70;;;-1.50;99.90;;;;;;6170239;23;20167;-84
2024/01/06 06:55:41;;;;;;;17.47;11.40;;;-1.50;99.90;;;;;;6175942;23;20207;-84
2024/01/06 06:58:10;;;;;;;18.83;11.20;;;-1.50;99.90;;;;;;6176995;23;20168;-84
2024/01/06 07:00:39;;;;;;;16.67;11.43;;;-1.40;99.90;;;;;;6169745;23;20428;-83
2024/01/06 07:03:11;;;;;;;18.60;12.17;;;-1.50;99.90;;;;;;6173228;23;20174;-87
2024/01/06 07:05:44;;;;;;;18.37;10.87;;;-1.30;99.90;;;;;;6170194;23;20497;-83
2024/01/06 07:08:15;;;;;;;18.23;11.30;;;-1.50;99.90;;;;;;6156698;23;20184;-84
2024/01/06 07:10:43;;;;;;;20.80;12.20;;;-1.50;99.90;;;;;;6150855;23;20295;-84
2024/01/06 07:13:12;;;;;;;20.93;12.47;;;-1.40;99.90;;;;;;6150573;23;20168;-85
2024/01/06 07:15:41;;;;;;;22.33;13.13;;;-1.60;99.90;;;;;;6151155;23;20179;-83
2024/01/06 07:18:10;;;;;;;20.13;12.50;;;-1.30;99.90;;;;;;6154479;23;20203;-85
2024/01/06 07:20:39;;;;;;;20.77;11.70;;;-1.40;99.90;;;;;;6168537;23;20184;-85
2024/01/06 07:23:09;;;;;;;17.40;10.00;;;-1.40;99.90;;;;;;6175850;23;20168;-86
2024/01/06 07:25:39;;;;;;;16.17;8.37;;;-1.40;99.90;;;;;;6168988;23;20202;-84
2024/01/06 07:28:09;;;;;;;14.63;9.33;;;-1.30;99.90;;;;;;6175882;23;20152;-83
2024/01/06 07:30:37;;;;;;;16.17;10.90;;;-1.50;99.90;;;;;;6174404;23;20215;-84
2024/01/06 07:33:06;;;;;;;13.93;8.10;;;-1.30;99.90;;;;;;6175471;23;20166;-86
2024/01/06 07:35:35;;;;;;;20.87;12.50;;;-1.40;99.90;;;;;;6172470;23;20172;-87
2024/01/06 07:38:04;;;;;;;18.63;11.80;;;-1.50;99.90;;;;;;6174796;23;20160;-85
2024/01/06 07:40:36;;;;;;;20.23;11.80;;;-1.40;99.90;;;;;;6173502;23;20179;-86
2024/01/06 07:43:07;;;;;;;11.33;8.40;;;-1.50;99.90;;;;;;6175250;23;20175;-85
2024/01/06 07:45:35;;;;;;;14.97;9.67;;;-1.30;99.90;;;;;;6173523;23;20162;-85
2024/01/06 07:48:05;;;;;;;14.73;8.53;;;-1.10;99.90;;;;;;6173246;23;20194;-83
2024/01/06 07:50:34;;;;;;;17.40;10.53;;;-1.40;99.90;;;;;;6172971;23;20187;-83
2024/01/06 07:53:04;;;;;;;17.43;10.57;;;-1.20;99.90;;;;;;6174621;23;20178;-84
2024/01/06 07:55:34;;;;;;;17.93;10.10;;;-1.40;99.90;;;;;;6168000;23;20163;-84
2024/01/06 07:58:04;;;;;;;18.87;12.30;;;-1.30;99.90;;;;;;6174221;23;20167;-85
2024/01/06 08:00:34;;;;;;;19.80;11.97;;;-1.30;99.90;;;;;;6171803;23;20166;-85
2024/01/06 08:03:06;;;;;;;21.37;13.20;;;-1.30;99.90;;;;;;6175462;23;20209;-86
2024/01/06 08:05:35;;;;;;;19.93;13.07;;;-1.30;99.90;;;;;;6173102;23;20167;-84
2024/01/06 08:08:04;;;;;;;18.93;11.20;;;-1.20;99.90;;;;;;6173914;23;20224;-83
2024/01/06 08:10:37;;;;;;;22.67;13.30;;;-1.30;99.90;;;;;;6164073;23;20198;-87
2024/01/06 08:13:07;;;;;;;10.33;6.63;;;-1.20;99.90;;;;;;6175224;23;20173;-83
2024/01/06 08:15:37;;;;;;;18.63;12.30;;;-1.20;99.90;;;;;;6172722;23;20179;-84
2024/01/06 08:18:10;;;;;;;18.00;12.27;;;-1.20;99.90;;;;;;6153250;23;20231;-85
2024/01/06 08:20:39;;;;;;;18.63;11.67;;;-1.20;99.90;;;;;;6177346;23;20502;-84
2024/01/06 08:23:14;;;;;;;19.40;11.30;;;-1.30;99.90;;;;;;6175562;23;20168;-86
2024/01/06 08:25:45;;;;;;;17.53;11.20;;;-1.00;99.90;;;;;;6164867;23;20180;-83
2024/01/06 08:28:16;;;;;;;19.40;11.60;;;-1.20;99.90;;;;;;6132163;23;20185;-84
2024/01/06 08:30:46;;;;;;;15.63;9.57;;;-1.20;99.90;;;;;;6151112;23;20199;-84
2024/01/06 08:33:19;;;;;;;13.70;8.30;;;-1.00;99.90;;;;;;6157229;23;20170;-86
2024/01/06 08:35:48;;;;;;;15.67;9.97;;;-0.90;99.90;;;;;;6136227;23;20199;-84
2024/01/06 08:38:19;;;;;;;15.47;10.57;;;-1.10;99.90;;;;;;6165055;23;20445;-85
2024/01/06 08:40:50;;;;;;;18.87;11.87;;;-1.10;99.90;;;;;;6172929;23;20167;-84
2024/01/06 08:43:19;;;;;;;18.43;11.93;;;-1.20;99.90;;;;;;6172514;23;20171;-83
2024/01/06 08:45:50;;;;;;;17.53;11.93;;;-1.10;99.90;;;;;;6168053;23;20168;-86
2024/01/06 08:48:21;;;;;;;17.60;11.03;;;-1.10;99.90;;;;;;6121776;23;20209;-86
2024/01/06 08:50:50;;;;;;;12.67;7.87;;;-1.10;99.90;;;;;;6154241;23;20665;-83
2024/01/06 08:53:22;;;;;;;17.50;9.97;;;-1.10;99.90;;;;;;6158959;23;20175;-85
2024/01/06 08:55:59;;;;;;;16.90;10.63;;;-1.20;99.90;;;;;;6156250;23;20179;-88
2024/01/06 08:58:29;;;;;;;16.80;9.80;;;-1.20;99.90;;;;;;6122959;23;20206;-85
2024/01/06 09:01:01;;;;;;;16.73;10.00;;;-1.20;99.90;;;;;;6163692;23;20206;-86
2024/01/06 09:03:32;;;;;;;15.33;9.13;;;-1.10;99.90;;;;;;6160038;23;20374;-84
2024/01/06 09:06:01;;;;;;;18.70;10.67;;;-1.10;99.90;;;;;;6178035;23;20166;-83
2024/01/06 09:08:32;;;;;;;15.40;8.47;;;-1.20;99.90;;;;;;6166220;23;20233;-85
2024/01/06 09:11:02;;;;;;;14.93;8.93;;;-1.10;99.90;;;;;;6128983;23;20202;-85
2024/01/06 09:13:32;;;;;;;17.50;10.07;;;-1.10;99.90;;;;;;6149588;23;20167;-83
2024/01/06 09:16:02;;;;;;;16.70;10.10;;;-1.10;99.90;;;;;;6144194;23;20250;-83
2024/01/06 09:18:33;;;;;;;13.97;8.43;;;-1.00;99.90;;;;;;6158976;23;20168;-86
2024/01/06 09:21:05;;;;;;;13.50;8.77;;;-1.10;99.90;;;;;;6156490;23;20764;-84
2024/01/06 09:23:35;;;;;;;13.13;9.33;;;-1.10;99.90;;;;;;6158222;23;20167;-84
2024/01/06 09:26:05;;;;;;;15.23;10.30;;;-1.10;99.90;;;;;;6167246;23;20306;-87
2024/01/06 09:28:35;;;;;;;14.03;8.83;;;-1.10;99.90;;;;;;6160026;23;20202;-85
2024/01/06 09:31:04;;;;;;;10.23;7.10;;;-1.10;99.90;;;;;;6158809;23;20578;-86
2024/01/06 09:33:34;;;;;;;12.77;8.77;;;-1.10;99.90;;;;;;6150727;23;20190;-84
2024/01/06 09:36:04;;;;;;;13.97;9.53;;;-1.10;99.90;;;;;;6154221;23;20168;-86
2024/01/06 09:38:33;;;;;;;14.63;7.63;;;-1.00;99.90;;;;;;6153490;23;20167;-87
2024/01/06 09:41:02;;;;;;;14.50;8.63;;;-0.90;99.90;;;;;;6154453;23;20498;-84
2024/01/06 09:43:33;;;;;;;15.03;9.70;;;-0.80;99.90;;;;;;6152959;23;20175;-84
2024/01/06 09:46:10;;;;;;;12.47;9.00;;;-0.90;99.90;;;;;;6156540;23;20230;-85
2024/01/06 09:48:42;;;;;;;10.83;7.23;;;-1.00;99.90;;;;;;6112822;23;20171;-85
2024/01/06 09:51:16;;;;;;;13.20;8.33;;;-0.80;99.90;;;;;;6116138;23;20678;-85
2024/01/06 09:53:51;;;;;;;9.13;6.93;;;-1.00;99.90;;;;;;6153136;23;20201;-83
2024/01/06 09:56:21;;;;;;;11.97;6.03;;;-1.10;99.90;;;;;;6154564;23;20684;-86
2024/01/06 09:58:52;;;;;;;15.00;8.60;;;-1.10;99.90;;;;;;6153567;23;20180;-84
2024/01/06 10:01:22;;;;;;;7.60;4.80;;;-1.10;99.90;;;;;;6120727;23;20179;-85
2024/01/06 10:04:00;;;;;;;12.53;8.07;;;-1.10;99.90;;;;;;6157763;23;20195;-85
2024/01/06 10:06:29;;;;;;;11.77;8.00;;;-1.10;99.90;;;;;;6161752;23;20198;-87
2024/01/06 10:08:59;;;;;;;15.53;9.23;;;-1.10;99.90;;;;;;6163615;23;20168;-84
2024/01/06 10:11:28;;;;;;;9.77;7.63;;;-1.10;99.90;;;;;;6177319;23;20198;-87
2024/01/06 10:13:59;;;;;;;13.10;7.73;;;-1.10;99.90;;;;;;6176994;23;20160;-83
2024/01/06 10:16:29;;;;;;;13.10;8.13;;;-0.90;99.90;;;;;;6175806;23;20164;-84
2024/01/06 10:19:06;;;;;;;11.67;8.23;;;-0.90;99.90;;;;;;6161378;23;20407;-86
2024/01/06 10:21:34;;;;;;;12.93;8.03;;;-1.00;99.90;;;;;;6158760;23;20215;-86
2024/01/06 10:24:04;;;;;;;12.40;7.43;;;-1.00;99.90;;;;;;6170289;23;20190;-86
2024/01/06 10:26:33;;;;;;;13.37;8.90;;;-1.00;99.90;;;;;;6172267;23;20182;-83
2024/01/06 10:29:03;;;;;;;11.33;7.97;;;-1.00;99.90;;;;;;6117420;23;20260;-84
2024/01/06 10:31:35;;;;;;;7.80;5.10;;;-0.90;99.90;;;;;;6117193;23;20561;-88
2024/01/06 10:34:06;;;;;;;11.67;8.03;;;-0.90;99.90;;;;;;6151293;23;20179;-85
2024/01/06 10:36:34;;;;;;;10.67;7.80;;;-1.00;99.90;;;;;;6150822;23;20174;-84
2024/01/06 10:39:04;;;;;;;14.03;8.50;;;-1.10;99.90;;;;;;6148025;23;20203;-83
2024/01/06 10:41:33;;;;;;;11.63;7.13;;;-1.10;99.90;;;;;;6150043;23;20267;-85
2024/01/06 10:44:06;;;;;;;11.57;8.17;;;-1.10;99.90;;;;;;6149073;23;20167;-83
2024/01/06 10:46:36;;;;;;;11.87;7.90;;;-1.10;99.90;;;;;;6145980;23;20178;-85
2024/01/06 10:49:08;;;;;;;11.90;7.97;;;-1.20;99.90;;;;;;6150705;23;20194;-84
2024/01/06 10:51:38;;;;;;;12.53;8.37;;;-1.10;99.90;;;;;;6149120;23;20368;-83
2024/01/06 10:54:08;;;;;;;9.93;6.77;;;-1.10;99.90;;;;;;6149880;23;20179;-85
2024/01/06 10:56:39;;;;;;;12.93;8.10;;;-1.10;99.90;;;;;;6149937;23;20187;-86
2024/01/06 10:59:12;;;;;;;11.17;7.10;;;-1.10;99.90;;;;;;6150351;23;20266;-85
2024/01/06 11:01:43;;;;;;;9.17;6.63;;;-1.10;99.90;;;;;;6148867;23;20496;-85
2024/01/06 11:04:13;;;;;;;10.80;7.50;;;-1.10;99.90;;;;;;6149891;23;20219;-85
2024/01/06 11:06:43;;;;;;;15.17;8.43;;;-0.90;99.90;;;;;;6147912;23;20613;-85
2024/01/06 11:09:17;;;;;;;12.80;8.37;;;-0.90;99.90;;;;;;6117351;23;20179;-84
2024/01/06 11:11:46;;;;;;;8.60;6.47;;;-1.00;99.90;;;;;;6152999;23;20535;-86
2024/01/06 11:14:22;;;;;;;10.67;5.83;;;-0.90;99.90;;;;;;6160060;23;20185;-86
2024/01/06 11:16:52;;;;;;;9.30;5.90;;;-1.00;99.90;;;;;;6151632;23;20182;-84
2024/01/06 11:19:54;;;;;;;8.90;7.30;;;-1.00;99.90;;;;;;6169095;23;20171;-86
2024/01/06 11:22:31;;;;;;;15.67;8.40;;;-1.00;99.90;;;;;;6110039;23;20179;-86
2024/01/06 11:25:05;;;;;;;12.33;7.67;;;-1.00;99.90;;;;;;6161846;23;20251;-85
2024/01/06 11:27:35;;;;;;;12.07;7.63;;;-0.90;99.90;;;;;;6163401;23;20164;-84
2024/01/06 11:30:07;;;;;;;6.90;4.93;;;-0.90;99.90;;;;;;6169837;23;20182;-85
2024/01/06 11:32:38;;;;;;;11.87;7.77;;;-0.90;99.90;;;;;;6172597;23;20198;-85
2024/01/06 11:35:17;;;;;;;11.33;8.07;;;-0.90;99.90;;;;;;6171863;23;20238;-83
2024/01/06 11:37:56;;;;;;;10.37;6.57;;;-1.10;99.90;;;;;;6157739;23;20178;-83
2024/01/06 11:40:32;;;;;;;6.80;5.40;;;-1.00;99.90;;;;;;6149880;23;20163;-84
2024/01/06 11:43:06;;;;;;;9.97;7.23;;;-1.00;99.90;;;;;;6152852;23;20520;-85
2024/01/06 11:45:42;;;;;;;9.70;5.80;;;-1.00;99.90;;;;;;6118996;23;20185;-86
2024/01/06 11:48:13;;;;;;;8.20;4.77;;;-1.00;99.90;;;;;;6159720;23;20186;-84
2024/01/06 11:50:44;;;;;;;8.80;6.40;;;-1.10;99.90;;;;;;6137214;23;20168;-84
2024/01/06 11:53:13;;;;;;;12.43;7.60;;;-1.10;99.90;;;;;;6135480;23;20191;-89
2024/01/06 11:55:43;;;;;;;10.83;6.90;;;-0.90;99.90;;;;;;6161072;23;20164;-85
2024/01/06 11:58:12;;;;;;;12.17;7.80;;;-1.00;99.90;;;;;;6160039;23;20251;-85
2024/01/06 12:00:42;;;;;;;12.87;8.13;;;-1.00;99.90;;;;;;6160622;23;20190;-85
2024/01/06 12:03:17;;;;;;;6.60;4.73;;;-0.90;99.90;;;;;;6135212;23;20255;-86
2024/01/06 12:05:47;;;;;;;9.90;6.87;;;-0.90;99.90;;;;;;6173569;23;20170;-86
2024/01/06 12:08:21;;;;;;;13.43;7.67;;;-0.90;99.90;;;;;;6176278;23;20179;-86
2024/01/06 12:10:51;;;;;;;7.23;3.83;;;-0.90;99.90;;;;;;6175075;23;20209;-85
2024/01/06 12:13:19;;;;;;;10.83;6.80;;;-0.80;99.90;;;;;;6177163;23;21281;-84
2024/01/06 12:15:51;;;;;;;10.40;6.97;;;-0.80;99.90;;;;;;6176868;23;20163;-87
2024/01/06 12:18:20;;;;;;;11.47;7.70;;;-0.80;99.90;;;;;;6168702;23;20198;-85
2024/01/06 12:20:53;;;;;;;9.10;6.53;;;-0.90;99.90;;;;;;6163403;23;20167;-85
2024/01/06 12:23:27;;;;;;;7.80;5.13;;;-0.80;99.90;;;;;;6135192;23;20195;-84
2024/01/06 12:25:57;;;;;;;12.20;7.43;;;-0.80;99.90;;;;;;6167461;23;20175;-83
2024/01/06 12:28:28;;;;;;;11.27;7.30;;;-0.90;99.90;;;;;;6158230;23;20191;-84
2024/01/06 12:31:01;;;;;;;8.73;6.50;;;-0.80;99.90;;;;;;6168436;23;20210;-84
2024/01/06 12:33:30;;;;;;;9.10;6.40;;;-0.90;99.90;;;;;;6169520;23;20183;-87
2024/01/06 12:36:01;;;;;;;12.63;7.77;;;-0.70;99.90;;;;;;6168558;23;20228;-86
2024/01/06 12:38:46;;;;;;;9.23;6.40;;;-0.80;99.90;;;;;;6171389;23;20175;-87
2024/01/06 12:41:17;;;;;;;7.13;5.13;;;-0.50;99.90;;;;;;6170758;23;20179;-83
2024/01/06 12:43:50;;;;;;;9.73;7.03;;;-0.70;99.90;;;;;;6169235;23;20171;-85
2024/01/06 12:46:23;;;;;;;8.83;5.77;;;-0.70;99.90;;;;;;6159302;23;20623;-85
2024/01/06 12:48:54;;;;;;;5.87;4.63;;;-0.60;99.90;;;;;;6157113;23;20180;-86
2024/01/06 12:51:24;;;;;;;7.67;3.77;;;-0.80;99.90;;;;;;6154899;23;20203;-85